Time;durP1;ratioP1;P1;durP2;ratioP2;P2;SDS_P1;SDS_P2;PMS_P1;PMS_P2;Temp;Humidity;BMP_temperature;BMP_pressure;BME280_temperature;BME280_humidity;BME280_pressure;Samples;Min_cycle;Max_cycle;Signal;HPM_P1;HPM_P2
2023/12/17 00:00:20;;;;;;;21.47;16.20;;;8.70;1.00;;;;;;5088347;28;20493;-83
2023/12/17 00:02:47;;;;;;;22.63;16.80;;;8.60;1.00;;;;;;5088257;28;20429;-82
2023/12/17 00:05:14;;;;;;;24.70;15.37;;;8.90;1.00;;;;;;5087492;28;20480;-82
2023/12/17 00:07:41;;;;;;;30.80;16.47;;;8.70;99.90;;;;;;5099969;28;20459;-82
2023/12/17 00:10:09;;;;;;;27.83;16.77;;;8.80;1.00;;;;;;5100366;28;20452;-81
2023/12/17 00:12:39;;;;;;;24.90;15.60;;;8.70;1.00;;;;;;5100218;28;20435;-80
2023/12/17 00:15:06;;;;;;;23.67;14.67;;;8.70;1.00;;;;;;5100137;28;20496;-81
2023/12/17 00:17:37;;;;;;;25.30;14.80;;;8.70;99.90;;;;;;5099268;28;20411;-82
2023/12/17 00:20:04;;;;;;;25.87;16.40;;;8.50;1.00;;;;;;5098594;28;20468;-82
2023/12/17 00:22:31;;;;;;;23.43;14.63;;;8.70;99.90;;;;;;5098969;28;20416;-82
2023/12/17 00:24:58;;;;;;;20.67;13.83;;;8.70;1.00;;;;;;5090555;28;20503;-83
2023/12/17 00:27:25;;;;;;;23.30;16.67;;;8.70;1.00;;;;;;5099605;28;20486;-82
2023/12/17 00:29:51;;;;;;;25.90;14.63;;;8.70;1.00;;;;;;5098920;28;20473;-81
2023/12/17 00:32:18;;;;;;;23.20;15.90;;;8.60;1.00;;;;;;5098506;28;20465;-81
2023/12/17 00:34:46;;;;;;;26.43;15.67;;;8.70;1.00;;;;;;5094227;28;20463;-82
2023/12/17 00:37:12;;;;;;;25.40;16.57;;;8.70;1.00;;;;;;5082072;28;20445;-83
2023/12/17 00:39:39;;;;;;;23.20;14.03;;;8.70;1.00;;;;;;5081166;28;20534;-83
2023/12/17 00:42:06;;;;;;;20.87;15.70;;;8.70;1.00;;;;;;5081379;28;20298;-83
2023/12/17 00:44:33;;;;;;;22.30;14.27;;;8.70;1.00;;;;;;5080464;28;20480;-82
2023/12/17 00:47:03;;;;;;;25.10;14.43;;;8.70;1.00;;;;;;5083662;28;20480;-84
2023/12/17 00:49:30;;;;;;;30.13;16.70;;;8.70;1.00;;;;;;5094015;28;20460;-82
2023/12/17 00:51:58;;;;;;;26.67;14.87;;;8.70;1.00;;;;;;5078158;28;20543;-83
2023/12/17 00:54:25;;;;;;;20.67;15.00;;;8.70;1.00;;;;;;5080379;28;20532;-83
2023/12/17 00:56:52;;;;;;;29.27;15.80;;;8.70;1.00;;;;;;5080979;28;20451;-82
2023/12/17 00:59:19;;;;;;;27.27;16.03;;;8.70;1.00;;;;;;5080426;28;20511;-82
2023/12/17 01:01:47;;;;;;;22.57;14.73;;;8.70;1.00;;;;;;5080852;28;20531;-83
2023/12/17 01:04:13;;;;;;;27.03;15.77;;;8.70;1.00;;;;;;5081959;28;20504;-83
2023/12/17 01:06:40;;;;;;;23.53;14.70;;;8.70;1.00;;;;;;5080632;28;20447;-84
2023/12/17 01:09:10;;;;;;;22.33;14.40;;;9.00;1.00;;;;;;5082444;28;20518;-82
2023/12/17 01:11:39;;;;;;;21.33;14.50;;;8.80;1.00;;;;;;5082426;28;20444;-83
2023/12/17 01:14:06;;;;;;;22.00;14.63;;;8.80;1.00;;;;;;5082671;28;20427;-83
2023/12/17 01:16:33;;;;;;;23.53;14.23;;;8.70;1.00;;;;;;5078676;28;20443;-82
2023/12/17 01:19:00;;;;;;;19.50;14.10;;;8.80;1.00;;;;;;5078103;28;20469;-82
2023/12/17 01:21:27;;;;;;;20.37;15.17;;;8.80;1.00;;;;;;5078026;28;20479;-82
2023/12/17 01:23:57;;;;;;;18.97;12.30;;;8.80;1.00;;;;;;5077649;28;20487;-83
2023/12/17 01:26:26;;;;;;;18.30;14.40;;;8.70;1.00;;;;;;5079192;28;20445;-83
2023/12/17 01:28:53;;;;;;;19.97;13.97;;;8.90;1.00;;;;;;5077860;28;20503;-82
2023/12/17 01:31:20;;;;;;;21.90;13.30;;;8.80;1.00;;;;;;5078558;28;20445;-83
2023/12/17 01:33:47;;;;;;;19.37;13.50;;;8.80;1.00;;;;;;5078443;28;20605;-83
2023/12/17 01:36:14;;;;;;;21.77;14.17;;;8.80;1.00;;;;;;5079614;28;20506;-82
2023/12/17 01:38:41;;;;;;;20.63;13.63;;;8.80;1.00;;;;;;5084964;28;20492;-83
2023/12/17 01:41:12;;;;;;;28.67;17.67;;;8.50;1.00;;;;;;5081142;28;20482;-83
2023/12/17 01:43:40;;;;;;;20.40;13.33;;;8.80;1.00;;;;;;5079844;28;20445;-83
2023/12/17 01:46:07;;;;;;;24.90;14.10;;;8.80;1.00;;;;;;5081416;28;20456;-83
2023/12/17 01:48:35;;;;;;;27.70;15.57;;;8.80;1.00;;;;;;5079563;28;20460;-83
2023/12/17 01:51:02;;;;;;;21.73;14.90;;;8.80;1.00;;;;;;5079028;28;20522;-83
2023/12/17 01:53:29;;;;;;;24.17;13.70;;;8.80;1.00;;;;;;5084481;28;20850;-82
2023/12/17 01:55:56;;;;;;;22.30;15.73;;;8.80;1.00;;;;;;5086046;28;20451;-82
2023/12/17 01:58:24;;;;;;;18.90;13.70;;;8.60;1.00;;;;;;5084030;28;20479;-82
2023/12/17 02:00:52;;;;;;;21.47;15.70;;;8.80;1.00;;;;;;5082251;28;20871;-82
2023/12/17 02:03:19;;;;;;;21.03;14.37;;;8.80;1.00;;;;;;5079248;28;20437;-82
2023/12/17 02:05:46;;;;;;;22.67;15.30;;;8.50;1.00;;;;;;5086808;28;20552;-82
2023/12/17 02:08:12;;;;;;;21.63;13.90;;;8.60;1.00;;;;;;5087629;28;20449;-82
2023/12/17 02:10:39;;;;;;;23.73;14.77;;;8.70;1.00;;;;;;5084459;28;20444;-82
2023/12/17 02:13:09;;;;;;;22.20;14.80;;;8.80;1.00;;;;;;5081771;28;20454;-82
2023/12/17 02:15:39;;;;;;;21.60;14.67;;;8.80;1.00;;;;;;5082315;28;20428;-82
2023/12/17 02:18:07;;;;;;;22.07;14.63;;;8.50;1.00;;;;;;5081536;28;20487;-83
2023/12/17 02:20:34;;;;;;;22.50;15.00;;;8.80;1.00;;;;;;5081439;28;20849;-82
2023/12/17 02:23:05;;;;;;;26.67;15.97;;;8.80;1.00;;;;;;5081559;28;20444;-82
2023/12/17 02:25:32;;;;;;;18.90;13.50;;;8.80;1.00;;;;;;5082267;28;20863;-83
2023/12/17 02:27:59;;;;;;;21.87;16.03;;;8.80;1.00;;;;;;5082092;28;20452;-83
2023/12/17 02:30:26;;;;;;;21.00;13.50;;;8.80;1.00;;;;;;5087921;22;20873;-88
2023/12/17 02:32:53;;;;;;;21.47;14.27;;;8.80;1.00;;;;;;5066968;28;20441;-88
2023/12/17 02:35:21;;;;;;;21.27;15.37;;;8.80;1.00;;;;;;5066059;28;20519;-87
2023/12/17 02:37:48;;;;;;;24.60;15.87;;;8.80;1.00;;;;;;5065582;28;20502;-87
2023/12/17 02:40:16;;;;;;;22.00;14.30;;;8.80;1.00;;;;;;5081562;28;20520;-87
2023/12/17 02:42:43;;;;;;;24.50;15.30;;;8.80;1.00;;;;;;5087229;28;20423;-87
2023/12/17 02:45:11;;;;;;;22.30;13.90;;;8.80;1.00;;;;;;5094202;28;20491;-87
2023/12/17 02:47:37;;;;;;;23.50;14.53;;;8.90;1.00;;;;;;5098783;28;20436;-88
2023/12/17 02:50:05;;;;;;;26.83;14.93;;;8.60;1.00;;;;;;5096866;28;20496;-87
2023/12/17 02:52:32;;;;;;;19.20;14.57;;;8.80;1.00;;;;;;5086110;28;20440;-87
2023/12/17 02:54:59;;;;;;;21.07;14.93;;;8.90;1.00;;;;;;5084879;28;20476;-87
2023/12/17 02:57:28;;;;;;;20.33;15.67;;;8.80;1.00;;;;;;5094271;28;20512;-87
2023/12/17 02:59:55;;;;;;;20.80;13.73;;;8.80;1.00;;;;;;5096124;28;20537;-86
2023/12/17 03:02:22;;;;;;;25.47;15.83;;;8.80;1.00;;;;;;5093369;28;20451;-87
2023/12/17 03:04:49;;;;;;;19.47;14.23;;;8.80;1.00;;;;;;5094058;28;20485;-87
2023/12/17 03:07:16;;;;;;;20.40;14.23;;;8.80;1.00;;;;;;5094358;28;20504;-87
2023/12/17 03:09:43;;;;;;;24.93;14.83;;;8.80;1.00;;;;;;5085610;28;20478;-87
2023/12/17 03:12:09;;;;;;;21.33;14.43;;;8.90;1.00;;;;;;5083522;28;20506;-88
2023/12/17 03:14:37;;;;;;;25.37;14.50;;;8.90;1.00;;;;;;5083038;28;20448;-87
2023/12/17 03:17:04;;;;;;;21.97;13.80;;;8.80;1.00;;;;;;5082299;28;20516;-88
2023/12/17 03:19:31;;;;;;;21.53;16.10;;;8.80;1.00;;;;;;5082595;28;20491;-87
2023/12/17 03:21:58;;;;;;;24.77;15.60;;;8.80;1.00;;;;;;5084263;28;20425;-88
2023/12/17 03:24:25;;;;;;;21.27;13.97;;;8.80;1.00;;;;;;5088407;28;20490;-87
2023/12/17 03:26:51;;;;;;;22.73;13.57;;;8.80;1.00;;;;;;5097080;28;20937;-87
2023/12/17 03:29:18;;;;;;;23.53;14.07;;;8.80;1.00;;;;;;5097761;28;20535;-87
2023/12/17 03:31:46;;;;;;;22.27;14.17;;;8.90;1.00;;;;;;5097549;28;20492;-87
2023/12/17 03:34:13;;;;;;;18.77;13.90;;;8.90;1.00;;;;;;5086084;28;20539;-87
2023/12/17 03:36:40;;;;;;;20.83;13.83;;;8.70;1.00;;;;;;5085971;28;20459;-89
2023/12/17 03:39:08;;;;;;;21.87;14.70;;;8.90;1.00;;;;;;5084914;28;20563;-87
2023/12/17 03:41:35;;;;;;;25.07;15.73;;;8.90;1.00;;;;;;5088016;28;20440;-86
2023/12/17 03:44:01;;;;;;;24.00;13.93;;;8.90;1.00;;;;;;5100924;28;20459;-86
2023/12/17 03:46:28;;;;;;;21.30;13.93;;;8.90;1.00;;;;;;5100852;28;20474;-86
2023/12/17 03:48:56;;;;;;;22.00;13.47;;;8.80;1.00;;;;;;5100455;28;20443;-85
2023/12/17 03:51:23;;;;;;;19.27;15.00;;;8.80;1.00;;;;;;5100751;28;20436;-87
2023/12/17 03:53:50;;;;;;;21.30;15.60;;;8.90;1.00;;;;;;5100774;28;20433;-87
2023/12/17 03:56:17;;;;;;;22.10;14.13;;;8.90;1.00;;;;;;5099710;28;20427;-87
2023/12/17 03:58:44;;;;;;;22.20;13.80;;;8.90;20.40;;;;;;5091350;28;20472;-87
2023/12/17 04:01:11;;;;;;;21.13;14.90;;;9.10;29.80;;;;;;5097732;28;20444;-87
2023/12/17 04:03:38;;;;;;;20.70;15.90;;;8.90;1.00;;;;;;5097733;28;20419;-87
2023/12/17 04:06:08;;;;;;;21.60;15.33;;;8.80;1.00;;;;;;5090758;28;20482;-87
2023/12/17 04:08:35;;;;;;;24.37;14.37;;;8.60;1.00;;;;;;5083391;28;20452;-87
2023/12/17 04:11:02;;;;;;;24.47;13.90;;;;;;;;;;5083628;28;20472;-87
2023/12/17 04:13:29;;;;;;;20.33;14.50;;;8.80;1.00;;;;;;5082193;28;20423;-87
2023/12/17 04:15:56;;;;;;;21.03;15.40;;;8.90;1.00;;;;;;5082167;28;20443;-87
2023/12/17 04:18:23;;;;;;;24.97;15.20;;;;;;;;;;5082825;28;20447;-87
2023/12/17 04:20:50;;;;;;;20.73;14.80;;;8.90;1.00;;;;;;5082236;28;20552;-87
2023/12/17 04:23:18;;;;;;;22.43;14.90;;;9.20;99.90;;;;;;5081779;28;20486;-88
2023/12/17 04:25:45;;;;;;;21.37;15.13;;;8.80;5.00;;;;;;5082838;28;20490;-87
2023/12/17 04:28:11;;;;;;;20.97;13.30;;;8.80;2.90;;;;;;5083804;28;20479;-87
2023/12/17 04:30:38;;;;;;;23.20;14.23;;;8.80;16.60;;;;;;5082614;28;20478;-87
2023/12/17 04:33:05;;;;;;;20.50;14.17;;;8.80;27.40;;;;;;5086599;28;20441;-87
2023/12/17 04:35:32;;;;;;;21.20;15.17;;;8.80;20.20;;;;;;5098725;28;20438;-87
2023/12/17 04:37:58;;;;;;;22.03;15.83;;;8.80;31.40;;;;;;5099602;28;20464;-86
2023/12/17 04:40:27;;;;;;;21.63;13.87;;;8.80;39.90;;;;;;5099778;28;20543;-85
2023/12/17 04:42:53;;;;;;;22.40;14.63;;;8.80;47.10;;;;;;5099600;28;20489;-87
2023/12/17 04:45:20;;;;;;;26.43;15.23;;;8.80;43.70;;;;;;5099178;28;20499;-86
2023/12/17 04:47:47;;;;;;;23.57;15.13;;;8.80;49.00;;;;;;5094777;28;20432;-87
2023/12/17 04:50:14;;;;;;;29.20;16.17;;;8.80;43.60;;;;;;5097396;28;20488;-88
2023/12/17 04:52:41;;;;;;;21.63;15.30;;;8.80;34.70;;;;;;5092547;28;20456;-87
2023/12/17 04:55:08;;;;;;;21.70;13.83;;;8.80;46.20;;;;;;5089038;28;20502;-87
2023/12/17 04:57:36;;;;;;;22.67;15.30;;;8.80;73.80;;;;;;5090779;28;20991;-87
2023/12/17 05:00:05;;;;;;;23.17;16.00;;;8.80;44.50;;;;;;5084540;28;20460;-87
2023/12/17 05:02:32;;;;;;;19.57;13.87;;;8.80;46.40;;;;;;5083525;28;20444;-88
2023/12/17 05:04:59;;;;;;;22.67;15.77;;;8.90;42.50;;;;;;5079872;28;20883;-88
2023/12/17 05:07:26;;;;;;;27.03;15.53;;;8.80;25.30;;;;;;5084938;28;20452;-86
2023/12/17 05:09:52;;;;;;;25.27;17.23;;;8.90;32.40;;;;;;5087010;28;20528;-87
2023/12/17 05:12:19;;;;;;;28.47;19.30;;;8.80;24.70;;;;;;5094000;28;20515;-87
2023/12/17 05:14:47;;;;;;;23.93;16.10;;;8.80;39.70;;;;;;5096789;28;20429;-88
2023/12/17 05:17:14;;;;;;;21.67;15.30;;;;;;;;;;5090824;28;20498;-88
2023/12/17 05:19:41;;;;;;;19.70;13.50;;;8.80;28.00;;;;;;5083380;28;20436;-87
2023/12/17 05:22:08;;;;;;;16.20;13.10;;;8.70;26.70;;;;;;5083103;28;20506;-88
2023/12/17 05:24:35;;;;;;;15.33;13.20;;;8.70;18.90;;;;;;5081106;28;20445;-88
2023/12/17 05:27:02;;;;;;;21.83;14.20;;;;;;;;;;5081774;28;20572;-87
2023/12/17 05:29:29;;;;;;;19.33;13.57;;;8.70;38.20;;;;;;5080939;28;20842;-87
2023/12/17 05:31:57;;;;;;;16.60;14.00;;;8.70;99.90;;;;;;5080908;28;20827;-87
2023/12/17 05:34:25;;;;;;;18.93;13.57;;;8.70;15.20;;;;;;5082417;28;20840;-87
2023/12/17 05:36:52;;;;;;;26.00;19.20;;;8.70;28.20;;;;;;5082610;28;20442;-87
2023/12/17 05:39:18;;;;;;;23.23;18.20;;;8.70;28.50;;;;;;5083243;28;20480;-87
2023/12/17 05:41:45;;;;;;;22.43;15.53;;;;;;;;;;5084705;28;20443;-87
2023/12/17 05:44:12;;;;;;;15.80;13.17;;;8.80;99.90;;;;;;5082456;28;20494;-87
2023/12/17 05:46:39;;;;;;;19.90;13.37;;;;;;;;;;5082176;28;20473;-87
2023/12/17 05:49:08;;;;;;;22.63;14.47;;;8.70;27.50;;;;;;5083150;28;20612;-87
2023/12/17 05:51:35;;;;;;;20.50;13.77;;;8.70;35.90;;;;;;5092599;28;20451;-87
2023/12/17 05:54:01;;;;;;;20.57;14.53;;;10.10;38.10;;;;;;5086970;28;20486;-87
2023/12/17 05:56:28;;;;;;;17.07;13.47;;;8.70;22.90;;;;;;5084611;28;20869;-87
2023/12/17 05:58:55;;;;;;;16.17;12.10;;;8.70;22.80;;;;;;5082961;28;20499;-87
2023/12/17 06:01:22;;;;;;;21.60;12.90;;;7.00;13.30;;;;;;5084229;28;20514;-87
2023/12/17 06:03:49;;;;;;;22.80;13.60;;;8.70;9.10;;;;;;5084981;28;20490;-88
2023/12/17 06:06:17;;;;;;;17.40;13.57;;;8.70;12.90;;;;;;5083264;28;20497;-87
2023/12/17 06:08:44;;;;;;;19.03;12.27;;;8.70;85.80;;;;;;5082995;28;20456;-87
2023/12/17 06:11:16;;;;;;;20.50;12.00;;;8.70;1.00;;;;;;5082212;28;20469;-87
2023/12/17 06:13:43;;;;;;;21.43;12.83;;;;;;;;;;5081644;28;20501;-87
2023/12/17 06:16:10;;;;;;;16.47;12.27;;;8.70;1.00;;;;;;5082732;28;20452;-87
2023/12/17 06:18:37;;;;;;;19.20;13.80;;;;;;;;;;5082512;28;20427;-87
2023/12/17 06:21:05;;;;;;;17.23;11.33;;;8.70;1.00;;;;;;5084249;28;20934;-87
2023/12/17 06:23:33;;;;;;;16.00;12.07;;;8.70;1.00;;;;;;5083029;28;20457;-87
2023/12/17 06:26:04;;;;;;;19.17;13.07;;;8.70;1.00;;;;;;5083125;28;20447;-87
2023/12/17 06:28:31;;;;;;;18.33;12.10;;;8.50;1.00;;;;;;5083399;28;20868;-87
2023/12/17 06:30:58;;;;;;;17.90;11.50;;;8.90;1.00;;;;;;5082855;28;20979;-89
2023/12/17 06:33:24;;;;;;;18.17;12.30;;;8.80;1.00;;;;;;5082540;28;20415;-87
2023/12/17 06:35:51;;;;;;;18.10;13.07;;;8.80;1.00;;;;;;5084657;28;20423;-87
2023/12/17 06:38:18;;;;;;;15.80;12.40;;;8.80;1.00;;;;;;5087511;28;20448;-87
2023/12/17 06:40:46;;;;;;;19.00;12.93;;;8.80;1.00;;;;;;5093588;28;20516;-87
2023/12/17 06:43:13;;;;;;;15.97;10.80;;;8.70;1.00;;;;;;5094831;28;20415;-88
2023/12/17 06:45:41;;;;;;;17.53;12.37;;;8.80;1.00;;;;;;5092244;28;20516;-87
2023/12/17 06:48:09;;;;;;;19.07;11.63;;;;;;;;;;5086499;28;20472;-87
2023/12/17 06:50:35;;;;;;;16.23;12.00;;;8.80;1.00;;;;;;5082626;28;20438;-87
2023/12/17 06:53:02;;;;;;;16.20;11.70;;;8.80;1.00;;;;;;5083106;28;20556;-88
2023/12/17 06:55:29;;;;;;;15.30;10.80;;;8.80;1.00;;;;;;5084253;28;20919;-87
2023/12/17 06:57:57;;;;;;;22.83;11.90;;;8.90;1.00;;;;;;5085465;28;20475;-87
2023/12/17 07:00:24;;;;;;;17.30;11.50;;;8.90;1.00;;;;;;5086439;28;20440;-87
2023/12/17 07:02:52;;;;;;;16.70;11.73;;;8.90;1.00;;;;;;5084377;28;20429;-87
2023/12/17 07:05:19;;;;;;;16.67;11.63;;;8.90;1.00;;;;;;5084620;28;20457;-86
2023/12/17 07:07:48;;;;;;;13.53;11.10;;;8.90;1.00;;;;;;5084253;28;20448;-86
2023/12/17 07:10:15;;;;;;;16.53;10.93;;;8.90;1.00;;;;;;5084689;28;20470;-86
2023/12/17 07:12:42;;;;;;;17.20;9.53;;;8.90;1.00;;;;;;5083477;28;20446;-87
2023/12/17 07:15:11;;;;;;;13.37;10.63;;;8.90;1.00;;;;;;5084555;28;20458;-88
2023/12/17 07:17:38;;;;;;;17.83;11.53;;;8.90;1.00;;;;;;5083743;28;20498;-88
2023/12/17 07:20:06;;;;;;;16.33;10.87;;;8.90;1.00;;;;;;5090776;28;20484;-87
2023/12/17 07:22:34;;;;;;;14.40;10.57;;;8.90;1.00;;;;;;5101068;28;20459;-87
2023/12/17 07:25:00;;;;;;;15.40;11.40;;;8.90;1.00;;;;;;5096151;28;20444;-87
2023/12/17 07:27:27;;;;;;;15.87;11.60;;;8.90;1.00;;;;;;5085236;28;20526;-86
2023/12/17 07:29:54;;;;;;;14.70;9.70;;;9.00;1.00;;;;;;5084025;28;20534;-87
2023/12/17 07:32:22;;;;;;;12.27;10.33;;;9.20;1.00;;;;;;5083887;28;20454;-87
2023/12/17 07:34:49;;;;;;;12.93;9.90;;;;;;;;;;5084571;28;20419;-86
2023/12/17 07:37:17;;;;;;;13.23;10.27;;;8.90;1.00;;;;;;5096677;28;20415;-85
2023/12/17 07:39:44;;;;;;;13.83;9.47;;;8.90;1.00;;;;;;5101026;28;20435;-86
2023/12/17 07:42:11;;;;;;;12.80;10.10;;;8.90;1.00;;;;;;5090462;28;20624;-86
2023/12/17 07:44:37;;;;;;;10.63;9.10;;;8.80;1.00;;;;;;5086923;28;20415;-86
2023/12/17 07:47:05;;;;;;;13.50;9.43;;;9.00;1.00;;;;;;5089703;28;20500;-88
2023/12/17 07:49:34;;;;;;;10.87;8.73;;;8.90;1.00;;;;;;5094858;28;20500;-88
2023/12/17 07:52:00;;;;;;;13.50;9.70;;;9.00;1.00;;;;;;5093762;28;20444;-87
2023/12/17 07:54:28;;;;;;;13.57;9.43;;;8.90;99.90;;;;;;5095219;28;20539;-88
2023/12/17 07:56:55;;;;;;;11.60;9.13;;;9.00;99.90;;;;;;5080815;28;20945;-87
2023/12/17 07:59:21;;;;;;;13.67;10.40;;;9.00;99.90;;;;;;5082810;28;20439;-86
2023/12/17 08:01:48;;;;;;;13.80;8.77;;;9.00;99.90;;;;;;5081963;28;20431;-87
2023/12/17 08:04:16;;;;;;;13.10;8.97;;;9.20;1.00;;;;;;5082409;28;20916;-87
2023/12/17 08:06:44;;;;;;;11.90;8.60;;;9.00;99.90;;;;;;5082942;28;20455;-87
2023/12/17 08:09:11;;;;;;;13.40;9.43;;;9.00;99.90;;;;;;5081980;28;20445;-87
2023/12/17 08:11:38;;;;;;;13.43;10.07;;;9.00;99.90;;;;;;5082624;28;20510;-87
2023/12/17 08:14:05;;;;;;;14.23;9.57;;;9.60;99.90;;;;;;5082343;28;20522;-88
2023/12/17 08:16:32;;;;;;;11.10;8.83;;;9.10;99.90;;;;;;5081237;28;20453;-88
2023/12/17 08:18:58;;;;;;;12.37;9.30;;;9.00;99.90;;;;;;5082571;28;20834;-87
2023/12/17 08:21:25;;;;;;;13.93;9.33;;;8.90;99.90;;;;;;5084894;28;20415;-87
2023/12/17 08:23:53;;;;;;;11.83;9.67;;;9.10;99.90;;;;;;5087520;28;20430;-87
2023/12/17 08:26:20;;;;;;;13.90;8.90;;;9.10;99.90;;;;;;5084326;28;20455;-87
2023/12/17 08:31:22;;;;;;;14.00;9.27;;;9.40;99.90;;;;;;5023567;28;21007;-83
2023/12/17 08:33:52;;;;;;;17.80;10.00;;;9.00;99.90;;;;;;5022750;28;20437;-84
2023/12/17 08:36:19;;;;;;;11.27;8.57;;;9.10;99.90;;;;;;5022718;28;20403;-84
2023/12/17 08:38:47;;;;;;;13.10;8.70;;;11.60;99.90;;;;;;5021497;28;20447;-84
2023/12/17 08:41:15;;;;;;;9.70;8.43;;;9.10;99.90;;;;;;5021544;28;20464;-83
2023/12/17 08:43:42;;;;;;;10.57;8.87;;;8.90;99.90;;;;;;5022484;28;20453;-84
2023/12/17 08:46:09;;;;;;;12.50;9.93;;;9.20;99.90;;;;;;5022644;28;20459;-84
2023/12/17 08:48:37;;;;;;;11.30;9.10;;;9.30;99.90;;;;;;5022108;28;20440;-84
2023/12/17 08:51:05;;;;;;;9.60;8.37;;;9.20;99.90;;;;;;5030120;28;20457;-84
2023/12/17 08:53:32;;;;;;;12.10;8.37;;;9.20;99.90;;;;;;5028112;28;20460;-83
2023/12/17 08:55:59;;;;;;;13.27;8.93;;;9.30;61.50;;;;;;5025915;28;20441;-84
2023/12/17 08:58:29;;;;;;;12.60;9.37;;;9.20;90.70;;;;;;5034037;28;20448;-83
2023/12/17 09:00:56;;;;;;;11.37;8.20;;;9.40;99.90;;;;;;5035172;28;20467;-84
2023/12/17 09:03:23;;;;;;;10.80;9.37;;;9.10;99.90;;;;;;5031710;28;20458;-82
2023/12/17 09:05:50;;;;;;;11.67;8.83;;;9.30;4.80;;;;;;5024383;28;20428;-83
2023/12/17 09:08:17;;;;;;;11.47;8.70;;;9.30;1.00;;;;;;5023942;28;20493;-83
2023/12/17 09:10:44;;;;;;;13.53;9.27;;;;;;;;;;5023766;28;20509;-83
2023/12/17 09:13:11;;;;;;;11.53;8.20;;;9.30;1.00;;;;;;5023267;28;20425;-83
2023/12/17 09:15:41;;;;;;;7.53;6.77;;;9.30;1.00;;;;;;5023570;28;20498;-83
2023/12/17 09:18:08;;;;;;;9.47;7.27;;;9.40;1.00;;;;;;5024125;28;20443;-82
2023/12/17 09:20:35;;;;;;;11.10;7.40;;;9.40;1.00;;;;;;5023854;28;20471;-83
2023/12/17 09:23:02;;;;;;;9.30;7.63;;;9.30;1.00;;;;;;5024069;28;20447;-82
2023/12/17 09:25:29;;;;;;;10.47;7.33;;;9.40;1.00;;;;;;5025635;28;20889;-84
2023/12/17 09:27:56;;;;;;;11.57;7.47;;;9.60;1.00;;;;;;5022829;28;20994;-84
2023/12/17 09:30:25;;;;;;;8.37;7.30;;;9.40;1.00;;;;;;5022670;28;20477;-82
2023/12/17 09:32:53;;;;;;;9.87;7.47;;;9.40;1.00;;;;;;5024211;28;20437;-84
2023/12/17 09:35:22;;;;;;;10.50;7.87;;;9.50;1.00;;;;;;5022591;28;20513;-83
2023/12/17 09:37:48;;;;;;;9.83;7.90;;;9.50;1.00;;;;;;5025559;28;20510;-82
2023/12/17 09:40:16;;;;;;;9.20;6.93;;;9.40;1.00;;;;;;5025546;28;20471;-84
2023/12/17 09:42:44;;;;;;;9.63;6.90;;;9.50;1.00;;;;;;5022982;28;20451;-83
2023/12/17 09:45:14;;;;;;;8.97;7.70;;;9.50;1.00;;;;;;5017953;28;20414;-82
2023/12/17 09:47:42;;;;;;;9.70;8.13;;;9.50;1.00;;;;;;5017158;28;20446;-84
2023/12/17 09:50:11;;;;;;;8.60;7.33;;;9.50;1.00;;;;;;5017350;28;20543;-83
2023/12/17 09:52:41;;;;;;;13.10;7.70;;;9.50;1.00;;;;;;5017898;28;20530;-83
2023/12/17 09:55:10;;;;;;;7.73;6.60;;;9.50;1.00;;;;;;5024017;28;20447;-83
2023/12/17 09:57:37;;;;;;;7.80;7.10;;;9.50;1.00;;;;;;5035835;28;20435;-83
2023/12/17 10:00:05;;;;;;;8.33;7.50;;;9.50;1.00;;;;;;5037688;28;20455;-83
2023/12/17 10:02:32;;;;;;;7.60;6.83;;;9.50;1.00;;;;;;5032736;28;20436;-83
2023/12/17 10:04:59;;;;;;;9.97;7.53;;;9.50;1.00;;;;;;5032291;28;20453;-83
2023/12/17 10:07:27;;;;;;;7.93;7.10;;;9.40;1.00;;;;;;5030554;28;20479;-84
2023/12/17 10:09:54;;;;;;;9.83;7.07;;;9.60;1.00;;;;;;5030520;28;20438;-83
2023/12/17 10:12:22;;;;;;;8.80;6.87;;;9.60;99.90;;;;;;5030368;28;20519;-83
2023/12/17 10:14:49;;;;;;;7.97;6.90;;;9.60;99.90;;;;;;5029644;28;20489;-83
2023/12/17 10:17:18;;;;;;;9.43;7.77;;;9.60;99.90;;;;;;5030109;28;20472;-83
2023/12/17 10:19:50;;;;;;;8.30;6.43;;;9.60;99.90;;;;;;5029022;28;20527;-83
2023/12/17 10:22:17;;;;;;;8.03;6.30;;;9.60;99.90;;;;;;5023848;28;20456;-83
2023/12/17 10:24:45;;;;;;;7.00;6.30;;;9.60;99.90;;;;;;5022248;28;20448;-83
2023/12/17 10:27:17;;;;;;;9.07;6.50;;;9.60;99.90;;;;;;5022355;28;20479;-83
2023/12/17 10:29:44;;;;;;;10.37;6.40;;;9.60;99.90;;;;;;5024870;28;20476;-83
2023/12/17 10:32:30;;;;;;;10.77;7.40;;;9.60;99.90;;;;;;5022847;28;20447;-84
2023/12/17 10:34:57;;;;;;;8.10;7.30;;;9.40;1.00;;;;;;5028730;28;20954;-83
2023/12/17 10:37:24;;;;;;;9.70;7.17;;;9.60;99.90;;;;;;5025426;28;20472;-83
2023/12/17 10:43:16;;;;;;;10.60;6.60;;;9.60;99.90;;;;;;5036566;28;20457;-82
2023/12/17 10:45:46;;;;;;;7.53;6.60;;;9.60;99.90;;;;;;5041432;28;20439;-82
2023/12/17 10:48:15;;;;;;;7.87;6.70;;;9.60;99.90;;;;;;5041373;28;20508;-84
2023/12/17 10:50:43;;;;;;;8.20;6.70;;;9.60;99.90;;;;;;5041560;28;20494;-84
2023/12/17 10:53:10;;;;;;;11.30;6.30;;;9.60;99.90;;;;;;5032774;28;20474;-84
2023/12/17 10:55:37;;;;;;;8.27;6.77;;;9.60;99.90;;;;;;5026363;28;20951;-83
2023/12/17 10:58:07;;;;;;;7.07;6.00;;;9.70;99.90;;;;;;5026501;28;20425;-84
2023/12/17 11:00:38;;;;;;;7.80;6.27;;;9.70;1.00;;;;;;5026449;28;20445;-83
2023/12/17 11:03:08;;;;;;;8.70;6.70;;;9.70;1.00;;;;;;5024804;28;20438;-84
2023/12/17 11:05:35;;;;;;;7.53;6.80;;;10.00;1.00;;;;;;5036578;28;20407;-81
2023/12/17 11:08:02;;;;;;;9.27;7.10;;;9.70;1.00;;;;;;5041378;28;20441;-81
2023/12/17 11:10:29;;;;;;;11.70;7.60;;;9.70;1.00;;;;;;5041122;28;20459;-82
2023/12/17 11:12:56;;;;;;;6.87;6.17;;;9.70;1.00;;;;;;5036618;28;20451;-83
2023/12/17 11:15:25;;;;;;;10.53;6.93;;;9.80;1.00;;;;;;5034938;28;20481;-83
2023/12/17 11:17:56;;;;;;;7.23;6.20;;;9.70;1.00;;;;;;5038784;28;20402;-84
2023/12/17 11:20:33;;;;;;;7.30;6.60;;;9.80;1.00;;;;;;5039107;28;20437;-82
2023/12/17 11:23:01;;;;;;;7.03;6.33;;;9.80;1.00;;;;;;5038254;28;20415;-83
2023/12/17 11:25:34;;;;;;;7.80;6.13;;;10.00;1.00;;;;;;5039200;28;20436;-83
2023/12/17 11:28:01;;;;;;;9.43;6.93;;;9.80;99.90;;;;;;5033662;28;20437;-83
2023/12/17 11:30:28;;;;;;;6.90;6.20;;;9.80;1.00;;;;;;5030360;28;20594;-84
2023/12/17 11:32:59;;;;;;;8.80;7.90;;;9.70;99.90;;;;;;5025629;28;20447;-84
2023/12/17 11:35:27;;;;;;;10.80;6.87;;;9.50;1.00;;;;;;5024666;28;20451;-83
2023/12/17 11:37:54;;;;;;;7.90;7.10;;;9.80;99.90;;;;;;5025509;28;20429;-84
2023/12/17 11:40:21;;;;;;;7.33;6.60;;;9.80;99.90;;;;;;5025774;28;20446;-83
2023/12/17 11:42:56;;;;;;;9.37;7.00;;;9.90;99.90;;;;;;5024111;28;20530;-83
2023/12/17 11:45:32;;;;;;;7.87;6.97;;;9.90;99.90;;;;;;5022318;28;20445;-83
2023/12/17 11:48:09;;;;;;;7.30;6.60;;;9.90;99.90;;;;;;5022321;28;20445;-84
2023/12/17 11:50:44;;;;;;;7.40;6.57;;;9.70;99.90;;;;;;5022062;28;21037;-84
2023/12/17 11:53:12;;;;;;;7.67;6.97;;;9.90;99.90;;;;;;5024040;28;20941;-83
2023/12/17 11:55:47;;;;;;;8.47;7.57;;;9.90;1.00;;;;;;5037575;28;20429;-83
2023/12/17 11:58:17;;;;;;;7.90;7.10;;;9.80;99.90;;;;;;5036673;28;20425;-83
2023/12/17 12:00:59;;;;;;;10.47;8.93;;;9.90;99.90;;;;;;5029941;28;20463;-83
2023/12/17 12:03:27;;;;;;;8.97;8.03;;;9.60;99.90;;;;;;5022734;28;20435;-83
2023/12/17 12:05:58;;;;;;;9.20;6.67;;;9.80;99.90;;;;;;5022850;28;20527;-83
2023/12/17 12:08:25;;;;;;;7.97;6.23;;;10.00;1.00;;;;;;5022537;28;20472;-85
2023/12/17 12:10:52;;;;;;;7.93;6.83;;;9.80;99.90;;;;;;5022704;28;20478;-84
2023/12/17 12:13:19;;;;;;;14.60;11.10;;;9.90;99.90;;;;;;5022813;28;20794;-84
2023/12/17 12:15:46;;;;;;;9.67;7.50;;;10.00;99.90;;;;;;5025010;28;20502;-83
2023/12/17 12:18:21;;;;;;;6.87;6.13;;;9.90;1.00;;;;;;5033321;28;20519;-83
2023/12/17 12:20:50;;;;;;;7.87;7.07;;;9.80;99.90;;;;;;5032639;28;20477;-83
2023/12/17 12:23:17;;;;;;;8.23;6.77;;;9.80;99.90;;;;;;5028158;28;20983;-84
2023/12/17 12:25:44;;;;;;;9.80;7.20;;;9.90;99.90;;;;;;5028076;28;20482;-83
2023/12/17 12:28:16;;;;;;;7.93;7.13;;;9.90;99.90;;;;;;5024330;28;20514;-84
2023/12/17 12:30:43;;;;;;;9.33;8.20;;;9.90;1.00;;;;;;5023029;28;20536;-83
2023/12/17 12:33:11;;;;;;;8.30;7.07;;;9.90;99.90;;;;;;5024710;28;20448;-83
2023/12/17 12:35:39;;;;;;;8.27;6.10;;;9.60;1.00;;;;;;5026523;28;20470;-84
2023/12/17 12:38:23;;;;;;;8.50;7.50;;;10.00;1.00;;;;;;5023040;28;20961;-84
2023/12/17 12:40:50;;;;;;;6.90;6.20;;;9.60;1.00;;;;;;5021322;28;20498;-83
2023/12/17 12:43:18;;;;;;;9.47;7.60;;;;;;;;;;5024645;28;20447;-83
2023/12/17 12:45:45;;;;;;;8.07;7.27;;;9.50;1.00;;;;;;5031988;28;20450;-83
2023/12/17 12:48:23;;;;;;;8.47;7.57;;;9.80;99.90;;;;;;5031670;28;20547;-84
2023/12/17 12:50:51;;;;;;;7.57;6.60;;;9.80;99.90;;;;;;5022589;28;20470;-83
2023/12/17 12:53:19;;;;;;;8.20;6.83;;;9.70;99.90;;;;;;5021801;28;20447;-82
2023/12/17 12:55:47;;;;;;;9.37;6.90;;;10.20;1.00;;;;;;5023075;28;20447;-82
2023/12/17 12:58:15;;;;;;;7.97;7.17;;;9.70;99.90;;;;;;5022788;28;20486;-84
2023/12/17 13:00:43;;;;;;;8.03;7.13;;;9.50;99.90;;;;;;5022675;28;20531;-83